Time,TemperatureF,DewpointF,PressureIn,WindDirection,WindDirectionDegrees,WindSpeedMPH,WindSpeedGustMPH,Humidity,HourlyPrecipIn,Conditions,Clouds,dailyrainin,SoftwareType,DateUTC
2013-07-07 00:02:00,73.0,73.0,-100.00,SE,125,0.0,6.0,99,-99.99,,,-99.99,,2013-07-07 04:02:00,
2013-07-07 00:11:00,73.0,73.0,-100.00,SE,145,1.0,6.0,99,-99.99,,,-99.99,,2013-07-07 04:11:00,
2013-07-07 00:21:00,73.0,73.0,-100.00,SSW,200,2.0,6.0,99,-99.99,,,-99.99,,2013-07-07 04:21:00,
2013-07-07 00:31:00,73.0,73.0,-100.00,SE,135,3.0,6.0,99,-99.99,,,-99.99,,2013-07-07 04:31:00,
2013-07-07 00:41:00,73.0,73.0,-100.00,SE,130,4.0,6.0,99,-99.99,,,-99.99,,2013-07-07 04:41:00,
2013-07-07 00:51:00,73.0,72.0,-100.00,SE,125,1.0,5.0,99,-99.99,,,-99.99,,2013-07-07 04:51:00,
2013-07-07 01:01:00,72.0,72.0,-100.00,SE,125,1.0,5.0,99,-99.99,,,-99.99,,2013-07-07 05:01:00,
2013-07-07 01:11:00,72.0,72.0,-100.00,SSE,160,1.0,4.0,99,-99.99,,,-99.99,,2013-07-07 05:11:00,
2013-07-07 01:21:00,72.0,72.0,-100.00,South,185,1.0,4.0,99,-99.99,,,-99.99,,2013-07-07 05:21:00,
2013-07-07 01:31:00,72.0,72.0,-100.00,SSW,195,1.0,5.0,99,-99.99,,,-99.99,,2013-07-07 05:31:00,
2013-07-07 01:41:00,72.0,72.0,-100.00,SE,140,1.0,4.0,99,-99.99,,,-99.99,,2013-07-07 05:41:00,
2013-07-07 01:51:00,72.0,72.0,-100.00,South,180,1.0,2.0,99,-99.99,,,-99.99,,2013-07-07 05:51:00,
2013-07-07 02:01:00,72.0,72.0,-100.00,South,170,1.0,4.0,99,-99.99,,,-99.99,,2013-07-07 06:01:00,
2013-07-07 02:11:00,72.0,72.0,-100.00,SE,145,1.0,4.0,99,-99.99,,,-99.99,,2013-07-07 06:11:00,
2013-07-07 02:32:00,72.0,72.0,-100.00,ESE,120,1.0,4.0,99,-99.99,,,-99.99,,2013-07-07 06:32:00,
2013-07-07 02:43:00,72.0,72.0,-100.00,SE,145,3.0,6.0,99,-99.99,,,-99.99,,2013-07-07 06:43:00,
2013-07-07 02:52:00,72.0,72.0,-100.00,South,190,2.0,6.0,99,-99.99,,,-99.99,,2013-07-07 06:52:00,
2013-07-07 03:02:00,72.0,72.0,-100.00,SSE,160,2.0,5.0,99,-99.99,,,-99.99,,2013-07-07 07:02:00,
2013-07-07 03:11:00,72.0,72.0,-100.00,SSE,165,2.0,7.0,99,-99.99,,,-99.99,,2013-07-07 07:11:00,
2013-07-07 03:33:00,72.0,72.0,-100.00,South,180,2.0,6.0,99,-99.99,,,-99.99,,2013-07-07 07:33:00,
2013-07-07 03:44:00,72.0,72.0,-100.00,SSE,160,4.0,6.0,99,-99.99,,,-99.99,,2013-07-07 07:44:00,
2013-07-07 03:53:00,72.0,72.0,-100.00,SSW,200,2.0,6.0,99,-99.99,,,-99.99,,2013-07-07 07:53:00,
2013-07-07 04:02:00,72.0,72.0,-100.00,South,175,2.0,6.0,99,-99.99,,,-99.99,,2013-07-07 08:02:00,
2013-07-07 04:12:00,72.0,72.0,-100.00,South,180,4.0,6.0,99,-99.99,,,-99.99,,2013-07-07 08:12:00,
2013-07-07 04:34:00,72.0,72.0,-100.00,South,180,1.0,4.0,99,-99.99,,,-99.99,,2013-07-07 08:34:00,
2013-07-07 04:44:00,72.0,72.0,-100.00,SW,215,1.0,6.0,99,-99.99,,,-99.99,,2013-07-07 08:44:00,
2013-07-07 04:53:00,72.0,72.0,-100.00,SE,130,1.0,3.0,99,-99.99,,,-99.99,,2013-07-07 08:53:00,
2013-07-07 05:02:00,72.0,72.0,-100.00,SE,125,1.0,3.0,99,-99.99,,,-99.99,,2013-07-07 09:02:00,
2013-07-07 05:12:00,72.0,72.0,-100.00,SE,125,1.0,3.0,99,-99.99,,,-99.99,,2013-07-07 09:12:00,
2013-07-07 05:22:00,72.0,72.0,-100.00,SE,135,2.0,4.0,99,-99.99,,,-99.99,,2013-07-07 09:22:00,
2013-07-07 05:34:00,72.0,72.0,-100.00,East,90,1.0,5.0,99,-99.99,,,-99.99,,2013-07-07 09:34:00,
2013-07-07 05:43:00,72.0,72.0,-100.00,SSW,210,1.0,6.0,99,-99.99,,,-99.99,,2013-07-07 09:43:00,
2013-07-07 05:53:00,72.0,72.0,-100.00,West,280,0.0,2.0,99,-99.99,,,-99.99,,2013-07-07 09:53:00,
2013-07-07 06:03:00,72.0,72.0,-100.00,South,185,1.0,3.0,99,-99.99,,,-99.99,,2013-07-07 10:03:00,
2013-07-07 06:12:00,72.0,72.0,-100.00,SSE,150,1.0,4.0,99,-99.99,,,-99.99,,2013-07-07 10:12:00,
2013-07-07 06:32:00,72.0,72.0,-100.00,SE,135,0.0,1.0,99,-99.99,,,-99.99,,2013-07-07 10:32:00,
2013-07-07 06:43:00,72.0,72.0,-100.00,SE,140,1.0,1.0,99,-99.99,,,-99.99,,2013-07-07 10:43:00,
2013-07-07 06:52:00,72.0,72.0,-100.00,SE,140,0.0,2.0,99,-99.99,,,-99.99,,2013-07-07 10:52:00,
2013-07-07 07:02:00,72.0,71.0,-100.00,South,175,0.0,1.0,99,-99.99,,,-99.99,,2013-07-07 11:02:00,
2013-07-07 07:12:00,72.0,72.0,-100.00,SE,135,0.0,1.0,99,-99.99,,,-99.99,,2013-07-07 11:12:00,
2013-07-07 07:34:00,72.0,72.0,-100.00,ENE,75,0.0,1.0,99,-99.99,,,-99.99,,2013-07-07 11:34:00,
2013-07-07 07:43:00,72.0,72.0,-100.00,SSE,165,0.0,0.0,99,-99.99,,,-99.99,,2013-07-07 11:43:00,
2013-07-07 07:53:00,72.0,72.0,-100.00,SW,225,0.0,2.0,99,-99.99,,,-99.99,,2013-07-07 11:53:00,
2013-07-07 08:02:00,72.0,72.0,-100.00,West,260,1.0,1.0,99,-99.99,,,-99.99,,2013-07-07 12:02:00,
2013-07-07 08:12:00,72.0,72.0,-100.00,SSE,150,1.0,1.0,99,-99.99,,,-99.99,,2013-07-07 12:12:00,
2013-07-07 08:34:00,73.0,73.0,-100.00,SSW,205,1.0,2.0,99,-99.99,,,-99.99,,2013-07-07 12:34:00,
2013-07-07 08:43:00,74.0,73.0,-100.00,SSW,195,1.0,3.0,99,-99.99,,,-99.99,,2013-07-07 12:43:00,
2013-07-07 08:52:00,74.0,74.0,-100.00,SW,215,1.0,5.0,99,-99.99,,,-99.99,,2013-07-07 12:52:00,
2013-07-07 09:02:00,75.0,74.0,-100.00,SSW,200,2.0,5.0,97,-99.99,,,-99.99,,2013-07-07 13:02:00,
2013-07-07 09:12:00,76.0,75.0,-100.00,SSE,165,1.0,6.0,98,-99.99,,,-99.99,,2013-07-07 13:12:00,
2013-07-07 09:34:00,75.0,75.0,-100.00,SW,215,2.0,5.0,98,-99.99,,,-99.99,,2013-07-07 13:34:00,
2013-07-07 09:43:00,76.0,75.0,-100.00,SSW,195,1.0,3.0,98,-99.99,,,-99.99,,2013-07-07 13:43:00,
2013-07-07 09:52:00,77.0,76.0,-100.00,SW,220,2.0,4.0,98,-99.99,,,-99.99,,2013-07-07 13:52:00,
2013-07-07 10:02:00,77.0,77.0,-100.00,South,170,2.0,7.0,98,-99.99,,,-99.99,,2013-07-07 14:02:00,
2013-07-07 10:12:00,78.0,77.0,-100.00,WSW,240,3.0,7.0,98,-99.99,,,-99.99,,2013-07-07 14:12:00,
2013-07-07 10:34:00,80.0,78.0,-100.00,WSW,245,2.0,7.0,96,-99.99,,,-99.99,,2013-07-07 14:34:00,
2013-07-07 10:43:00,80.0,77.0,-100.00,SSW,200,4.0,8.0,90,-99.99,,,-99.99,,2013-07-07 14:43:00,
2013-07-07 10:53:00,81.0,76.0,-100.00,SW,235,2.0,6.0,87,-99.99,,,-99.99,,2013-07-07 14:53:00,
2013-07-07 11:02:00,80.0,76.0,-100.00,WSW,245,2.0,10.0,87,-99.99,,,-99.99,,2013-07-07 15:02:00,
2013-07-07 11:11:00,80.0,76.0,-100.00,WSW,250,1.0,7.0,87,-99.99,,,-99.99,,2013-07-07 15:11:00,
2013-07-07 11:34:00,83.0,76.0,-100.00,SSW,200,2.0,6.0,80,-99.99,,,-99.99,,2013-07-07 15:34:00,
2013-07-07 11:43:00,83.0,76.0,-100.00,SW,235,1.0,9.0,80,-99.99,,,-99.99,,2013-07-07 15:43:00,
2013-07-07 12:01:00,83.0,75.0,-100.00,SW,230,3.0,8.0,76,-99.99,,,-99.99,,2013-07-07 16:01:00,
2013-07-07 12:11:00,82.0,74.0,-100.00,SSW,210,4.0,8.0,77,-99.99,,,-99.99,,2013-07-07 16:11:00,
2013-07-07 12:23:00,81.0,74.0,-100.00,WSW,240,3.0,7.0,79,-99.99,,,-99.99,,2013-07-07 16:23:00,
2013-07-07 12:34:00,83.0,75.0,-100.00,WSW,240,4.0,8.0,76,-99.99,,,-99.99,,2013-07-07 16:34:00,
2013-07-07 12:43:00,83.0,75.0,-100.00,SSW,195,4.0,9.0,76,-99.99,,,-99.99,,2013-07-07 16:43:00,
2013-07-07 12:53:00,83.0,75.0,-100.00,SSE,155,1.0,9.0,76,-99.99,,,-99.99,,2013-07-07 16:53:00,
2013-07-07 13:02:00,85.0,75.0,-100.00,SW,230,2.0,9.0,73,-99.99,,,-99.99,,2013-07-07 17:02:00,
2013-07-07 13:12:00,85.0,76.0,-100.00,South,190,4.0,11.0,73,-99.99,,,-99.99,,2013-07-07 17:12:00,
2013-07-07 13:34:00,85.0,75.0,-100.00,SW,230,4.0,10.0,74,-99.99,,,-99.99,,2013-07-07 17:34:00,
2013-07-07 13:43:00,84.0,75.0,-100.00,SSW,210,3.0,7.0,74,-99.99,,,-99.99,,2013-07-07 17:43:00,
2013-07-07 13:53:00,84.0,75.0,-100.00,SW,215,4.0,10.0,75,-99.99,,,-99.99,,2013-07-07 17:53:00,
2013-07-07 14:02:00,84.0,76.0,-100.00,SW,215,4.0,7.0,75,-99.99,,,-99.99,,2013-07-07 18:02:00,
2013-07-07 14:12:00,85.0,76.0,-100.00,South,190,3.0,10.0,73,-99.99,,,-99.99,,2013-07-07 18:12:00,
2013-07-07 14:22:00,84.0,76.0,-100.00,SSW,195,4.0,10.0,75,-99.99,,,-99.99,,2013-07-07 18:22:00,
2013-07-07 14:33:00,84.0,75.0,-100.00,SSE,165,3.0,9.0,76,-99.99,,,-99.99,,2013-07-07 18:33:00,
2013-07-07 14:43:00,82.0,75.0,-100.00,WSW,250,5.0,9.0,79,-99.99,,,-99.99,,2013-07-07 18:43:00,
2013-07-07 14:53:00,81.0,78.0,-100.00,SW,235,3.0,7.0,91,-99.99,,,-99.99,,2013-07-07 18:53:00,
2013-07-07 15:01:00,82.0,79.0,-100.00,SW,225,2.0,9.0,91,-99.99,,,-99.99,,2013-07-07 19:01:00,
2013-07-07 15:11:00,83.0,78.0,-100.00,SW,215,4.0,8.0,87,-99.99,,,-99.99,,2013-07-07 19:11:00,
2013-07-07 15:22:00,84.0,78.0,-100.00,South,175,1.0,8.0,84,-99.99,,,-99.99,,2013-07-07 19:22:00,
2013-07-07 15:34:00,85.0,78.0,-100.00,WSW,240,2.0,7.0,81,-99.99,,,-99.99,,2013-07-07 19:34:00,
2013-07-07 15:43:00,85.0,78.0,-100.00,SW,225,3.0,6.0,80,-99.99,,,-99.99,,2013-07-07 19:43:00,
2013-07-07 15:54:00,85.0,77.0,-100.00,WSW,240,4.0,8.0,78,-99.99,,,-99.99,,2013-07-07 19:54:00,
2013-07-07 16:02:00,86.0,78.0,-100.00,SSW,200,2.0,6.0,77,-99.99,,,-99.99,,2013-07-07 20:02:00,
2013-07-07 16:11:00,86.0,77.0,-100.00,South,190,5.0,10.0,75,-99.99,,,-99.99,,2013-07-07 20:11:00,
2013-07-07 16:34:00,86.0,76.0,-100.00,SSW,205,4.0,10.0,73,-99.99,,,-99.99,,2013-07-07 20:34:00,
2013-07-07 16:42:00,85.0,76.0,-100.00,SW,235,4.0,9.0,75,-99.99,,,-99.99,,2013-07-07 20:42:00,
2013-07-07 16:53:00,84.0,76.0,-100.00,SSW,210,4.0,7.0,76,-99.99,,,-99.99,,2013-07-07 20:53:00,
2013-07-07 17:02:00,84.0,76.0,-100.00,WSW,245,2.0,5.0,77,-99.99,,,-99.99,,2013-07-07 21:02:00,
2013-07-07 17:11:00,83.0,76.0,-100.00,WSW,255,3.0,6.0,78,-99.99,,,-99.99,,2013-07-07 21:11:00,
2013-07-07 17:22:00,83.0,76.0,-100.00,SSW,200,3.0,6.0,80,-99.99,,,-99.99,,2013-07-07 21:22:00,
2013-07-07 17:33:00,82.0,76.0,-100.00,SW,220,2.0,5.0,82,-99.99,,,-99.99,,2013-07-07 21:33:00,
2013-07-07 17:43:00,82.0,76.0,-100.00,SSW,195,1.0,4.0,82,-99.99,,,-99.99,,2013-07-07 21:43:00,
2013-07-07 17:53:00,83.0,77.0,-100.00,WSW,240,2.0,4.0,82,-99.99,,,-99.99,,2013-07-07 21:53:00,
2013-07-07 18:01:00,82.0,76.0,-100.00,SW,230,3.0,5.0,82,-99.99,,,-99.99,,2013-07-07 22:01:00,
2013-07-07 18:11:00,83.0,76.0,-100.00,SSW,205,3.0,7.0,81,-99.99,,,-99.99,,2013-07-07 22:11:00,
2013-07-07 18:34:00,83.0,77.0,-100.00,SSW,210,4.0,11.0,81,-99.99,,,-99.99,,2013-07-07 22:34:00,
2013-07-07 18:44:00,82.0,76.0,-100.00,South,185,3.0,10.0,82,-99.99,,,-99.99,,2013-07-07 22:44:00,
2013-07-07 18:53:00,81.0,75.0,-100.00,SSW,205,4.0,7.0,82,-99.99,,,-99.99,,2013-07-07 22:53:00,
2013-07-07 19:02:00,81.0,75.0,-100.00,South,185,2.0,5.0,82,-99.99,,,-99.99,,2013-07-07 23:02:00,
2013-07-07 19:12:00,81.0,75.0,-100.00,SW,225,1.0,4.0,83,-99.99,,,-99.99,,2013-07-07 23:12:00,
2013-07-07 19:33:00,80.0,75.0,-100.00,WSW,250,1.0,2.0,84,-99.99,,,-99.99,,2013-07-07 23:33:00,
2013-07-07 19:43:00,80.0,76.0,-100.00,South,180,1.0,2.0,87,-99.99,,,-99.99,,2013-07-07 23:43:00,
2013-07-07 19:53:00,79.0,76.0,-100.00,SSE,165,1.0,2.0,89,-99.99,,,-99.99,,2013-07-07 23:53:00,
2013-07-07 20:02:00,79.0,75.0,-100.00,South,190,2.0,4.0,89,-99.99,,,-99.99,,2013-07-08 00:02:00,
2013-07-07 20:12:00,79.0,75.0,-100.00,SW,230,1.0,4.0,89,-99.99,,,-99.99,,2013-07-08 00:12:00,
2013-07-07 20:22:00,79.0,75.0,-100.00,SSW,200,2.0,4.0,88,-99.99,,,-99.99,,2013-07-08 00:22:00,
2013-07-07 20:33:00,79.0,75.0,-100.00,SSW,195,2.0,5.0,88,-99.99,,,-99.99,,2013-07-08 00:33:00,
2013-07-07 20:43:00,79.0,75.0,-100.00,South,175,1.0,4.0,89,-99.99,,,-99.99,,2013-07-08 00:43:00,
2013-07-07 20:53:00,78.0,76.0,-100.00,South,190,1.0,3.0,91,-99.99,,,-99.99,,2013-07-08 00:53:00,
2013-07-07 21:01:00,78.0,75.0,-100.00,SSW,210,1.0,3.0,92,-99.99,,,-99.99,,2013-07-08 01:01:00,
2013-07-07 21:11:00,77.0,75.0,-100.00,SSW,205,1.0,3.0,94,-99.99,,,-99.99,,2013-07-08 01:11:00,
2013-07-07 21:32:00,76.0,74.0,-100.00,SSW,195,1.0,3.0,95,-99.99,,,-99.99,,2013-07-08 01:32:00,
2013-07-07 21:43:00,76.0,75.0,-100.00,SSW,200,1.0,4.0,97,-99.99,,,-99.99,,2013-07-08 01:43:00,
2013-07-07 21:52:00,76.0,75.0,-100.00,SW,235,2.0,9.0,98,-99.99,,,-99.99,,2013-07-08 01:52:00,
2013-07-07 22:02:00,75.0,75.0,-100.00,WSW,245,2.0,5.0,98,-99.99,,,-99.99,,2013-07-08 02:02:00,
2013-07-07 22:11:00,75.0,75.0,-100.00,South,175,2.0,4.0,98,-99.99,,,-99.99,,2013-07-08 02:11:00,
2013-07-07 22:33:00,75.0,74.0,-100.00,South,190,2.0,6.0,98,-99.99,,,-99.99,,2013-07-08 02:33:00,
2013-07-07 22:42:00,74.0,74.0,-100.00,SSW,205,3.0,7.0,97,-99.99,,,-99.99,,2013-07-08 02:42:00,
2013-07-07 22:52:00,74.0,74.0,-100.00,SW,215,1.0,5.0,98,-99.99,,,-99.99,,2013-07-08 02:52:00,
2013-07-07 23:02:00,74.0,72.0,-100.00,South,185,2.0,4.0,92,-99.99,,,-99.99,,2013-07-08 03:02:00,
2013-07-07 23:12:00,74.0,73.0,-100.00,SSE,155,0.0,4.0,99,-99.99,,,-99.99,,2013-07-08 03:12:00,
2013-07-07 23:34:00,73.0,73.0,-100.00,SSE,155,1.0,2.0,99,-99.99,,,-99.99,,2013-07-08 03:34:00,
2013-07-07 23:42:00,73.0,73.0,-100.00,South,190,1.0,3.0,99,-99.99,,,-99.99,,2013-07-08 03:42:00,
2013-07-07 23:52:00,73.0,73.0,-100.00,South,175,1.0,2.0,99,-99.99,,,-99.99,,2013-07-08 03:52:00,